Time;durP1;ratioP1;P1;durP2;ratioP2;P2;SDS_P1;SDS_P2;PMS_P1;PMS_P2;Temp;Humidity;BMP_temperature;BMP_pressure;BME280_temperature;BME280_humidity;BME280_pressure;Samples;Min_cycle;Max_cycle;Signal;HPM_P1;HPM_P2
2022/02/12 00:02:16;;;;;;;8.83;2.40;;;;;;;-2.03;100.00;102425.69;5099512;28;20209;-74
2022/02/12 00:04:43;;;;;;;5.97;2.23;;;;;;;-2.11;100.00;102426.16;5097930;28;20201;-74
2022/02/12 00:07:09;;;;;;;4.20;2.00;;;;;;;-2.14;100.00;102431.09;5095302;28;20280;-74
2022/02/12 00:09:37;;;;;;;5.03;2.23;;;;;;;-2.21;100.00;102430.69;5099054;28;20218;-73
2022/02/12 00:12:04;;;;;;;5.80;2.20;;;;;;;-2.26;100.00;102427.88;5094430;28;20205;-73
2022/02/12 00:14:31;;;;;;;5.13;1.70;;;;;;;-2.29;100.00;102437.91;5097191;28;20559;-74
2022/02/12 00:16:57;;;;;;;4.57;1.93;;;;;;;-2.37;100.00;102432.41;5091018;28;20222;-74
2022/02/12 00:19:24;;;;;;;4.87;2.30;;;;;;;-2.39;100.00;102436.56;5100534;28;20221;-74
2022/02/12 00:21:50;;;;;;;4.83;2.03;;;;;;;-2.39;100.00;102446.78;5090300;28;20209;-74
2022/02/12 00:24:16;;;;;;;6.70;2.13;;;;;;;-2.40;100.00;102452.66;5096508;28;20198;-74
2022/02/12 00:26:44;;;;;;;8.07;2.50;;;;;;;-2.44;100.00;102460.97;5092578;28;20838;-74
2022/02/12 00:29:11;;;;;;;8.77;2.40;;;;;;;-2.49;100.00;102463.25;5077938;28;20476;-74
2022/02/12 00:31:37;;;;;;;7.50;2.23;;;;;;;-2.48;100.00;102465.00;5084246;28;20198;-75
2022/02/12 00:34:03;;;;;;;7.47;1.87;;;;;;;-2.52;100.00;102477.50;5089682;28;20456;-76
2022/02/12 00:36:30;;;;;;;4.83;2.10;;;;;;;-2.54;100.00;102477.41;5081720;28;20468;-74
2022/02/12 00:38:57;;;;;;;5.30;2.00;;;;;;;-2.55;100.00;102480.78;5085804;28;20476;-74
2022/02/12 00:41:23;;;;;;;5.07;1.70;;;;;;;-2.42;100.00;102486.59;5074006;28;20598;-74
2022/02/12 00:43:51;;;;;;;6.43;2.20;;;;;;;-2.45;100.00;102484.72;5086218;28;20285;-75
2022/02/12 00:46:17;;;;;;;7.47;2.03;;;;;;;-2.51;100.00;102494.63;5083736;28;20195;-75
2022/02/12 00:48:43;;;;;;;8.67;2.10;;;;;;;-2.40;100.00;102485.88;5083729;28;20201;-75
2022/02/12 00:51:10;;;;;;;3.57;1.80;;;;;;;-2.45;100.00;102489.84;5080479;28;20468;-74
2022/02/12 00:53:36;;;;;;;4.23;2.00;;;;;;;-2.35;100.00;102491.25;5081892;28;20463;-74
2022/02/12 00:56:03;;;;;;;7.30;1.80;;;;;;;-2.26;100.00;102498.56;5081926;28;20458;-73
2022/02/12 00:58:29;;;;;;;5.10;2.07;;;;;;;-2.34;100.00;102493.91;5079707;28;20301;-75
2022/02/12 01:00:57;;;;;;;6.53;2.20;;;;;;;-2.39;100.00;102491.84;5082480;28;20999;-75
2022/02/12 01:03:23;;;;;;;6.87;2.00;;;;;;;-2.41;100.00;102491.78;5082342;28;20452;-73
2022/02/12 01:05:51;;;;;;;4.97;2.30;;;;;;;-2.44;100.00;102493.28;5082418;28;20839;-74
2022/02/12 01:08:17;;;;;;;4.23;2.17;;;;;;;-2.45;100.00;102489.84;5077948;28;20463;-74
2022/02/12 01:10:43;;;;;;;3.90;2.10;;;;;;;-2.44;100.00;102489.06;5082214;28;20474;-75
2022/02/12 01:13:10;;;;;;;5.50;2.30;;;;;;;-2.54;100.00;102495.31;5083809;28;20441;-74
2022/02/12 01:15:37;;;;;;;7.63;2.10;;;;;;;-2.41;100.00;102494.34;5081721;28;20204;-74
2022/02/12 01:18:05;;;;;;;4.90;2.20;;;;;;;-2.44;100.00;102499.28;5080005;28;20210;-74
2022/02/12 01:20:34;;;;;;;5.73;2.23;;;;;;;-2.48;100.00;102498.22;5081373;28;20480;-74
2022/02/12 01:23:01;;;;;;;8.37;2.47;;;;;;;-2.43;100.00;102502.69;5085417;28;20209;-75
2022/02/12 01:25:27;;;;;;;4.33;2.40;;;;;;;-2.69;100.00;102517.41;5080137;28;20825;-75
2022/02/12 01:27:54;;;;;;;5.07;2.60;;;;;;;-2.72;100.00;102510.44;5080569;28;20193;-75
2022/02/12 01:30:21;;;;;;;6.23;2.43;;;;;;;-2.64;100.00;102502.34;5079533;28;20471;-74
2022/02/12 01:32:47;;;;;;;6.57;2.33;;;;;;;-2.60;100.00;102520.50;5080325;28;20525;-74
2022/02/12 01:35:15;;;;;;;7.10;2.40;;;;;;;-2.58;100.00;102511.25;5084964;28;20812;-74
2022/02/12 01:37:42;;;;;;;4.37;2.47;;;;;;;-2.63;100.00;102522.88;5080055;28;20479;-74
2022/02/12 01:40:09;;;;;;;3.80;2.73;;;;;;;-2.52;100.00;102526.03;5083817;28;20831;-74
2022/02/12 01:42:36;;;;;;;4.53;2.50;;;;;;;-2.80;100.00;102523.56;5080896;28;21084;-74
2022/02/12 01:45:03;;;;;;;9.77;2.73;;;;;;;-2.90;100.00;102532.38;5080454;28;20451;-74
2022/02/12 01:47:30;;;;;;;5.50;3.07;;;;;;;-2.93;100.00;102538.16;5083556;28;20466;-74
2022/02/12 01:49:56;;;;;;;12.53;3.37;;;;;;;-2.92;100.00;102541.56;5083644;28;20831;-74
2022/02/12 01:52:25;;;;;;;7.40;3.10;;;;;;;-3.01;100.00;102543.59;5084122;28;20458;-74
2022/02/12 01:54:51;;;;;;;5.77;2.33;;;;;;;-3.08;100.00;102535.56;5083850;28;20459;-74
2022/02/12 01:57:18;;;;;;;6.30;2.80;;;;;;;-3.24;100.00;102530.31;5080227;28;20479;-74
2022/02/12 01:59:44;;;;;;;7.83;3.10;;;;;;;-3.20;100.00;102534.84;5084488;28;20476;-74
2022/02/12 02:02:10;;;;;;;7.33;2.63;;;;;;;-3.19;100.00;102538.25;5084551;28;20478;-74
2022/02/12 02:04:40;;;;;;;6.27;2.73;;;;;;;-3.25;100.00;102534.56;5081197;28;21058;-74
2022/02/12 02:07:07;;;;;;;8.13;2.93;;;;;;;-3.31;100.00;102530.75;5082463;28;20457;-74
2022/02/12 02:09:35;;;;;;;5.97;2.80;;;;;;;-3.18;100.00;102523.06;5080342;28;20482;-74
2022/02/12 02:12:02;;;;;;;7.57;2.67;;;;;;;-3.13;100.00;102534.41;5077693;28;20461;-74
2022/02/12 02:14:33;;;;;;;7.47;3.30;;;;;;;-3.03;100.00;102532.41;5083609;28;20469;-74
2022/02/12 02:17:00;;;;;;;9.47;2.90;;;;;;;-2.91;100.00;102540.81;5081401;28;20493;-74
2022/02/12 02:19:26;;;;;;;5.97;2.63;;;;;;;-2.93;100.00;102539.84;5078057;28;20827;-75
2022/02/12 02:21:56;;;;;;;7.60;2.47;;;;;;;-3.06;100.00;102549.31;5073176;28;20832;-74
2022/02/12 02:24:24;;;;;;;7.80;3.03;;;;;;;-3.03;100.00;102547.72;5086518;28;20457;-74
2022/02/12 02:26:51;;;;;;;8.23;3.00;;;;;;;-3.03;100.00;102546.03;5082324;28;20457;-74
2022/02/12 02:29:18;;;;;;;6.33;2.87;;;;;;;-2.99;100.00;102548.00;5082310;28;20505;-74
2022/02/12 02:31:45;;;;;;;6.97;2.90;;;;;;;-2.91;100.00;102541.66;5080134;28;20459;-74
2022/02/12 02:34:13;;;;;;;7.27;2.80;;;;;;;-3.03;100.00;102540.94;5084802;28;20457;-74
2022/02/12 02:36:40;;;;;;;7.70;3.03;;;;;;;-2.94;100.00;102540.59;5078246;28;20896;-74
2022/02/12 02:39:07;;;;;;;8.03;2.43;;;;;;;-3.09;100.00;102549.13;5081428;28;20489;-74
2022/02/12 02:41:35;;;;;;;5.13;2.63;;;;;;;-3.00;100.00;102543.69;5083375;28;20455;-74
2022/02/12 02:44:01;;;;;;;6.87;2.43;;;;;;;-2.99;100.00;102542.00;5080304;28;21058;-74
2022/02/12 02:46:27;;;;;;;7.07;2.80;;;;;;;-2.94;100.00;102544.03;5080156;28;20971;-74
2022/02/12 02:48:54;;;;;;;11.93;2.53;;;;;;;-2.98;100.00;102548.88;5080377;28;20477;-73
2022/02/12 02:56:50;;;;;;;9.10;2.60;;;;;;;-3.12;100.00;102543.81;5084268;28;21013;-74
2022/02/12 02:59:16;;;;;;;5.83;2.20;;;;;;;-3.11;100.00;102543.03;5081698;28;20910;-74
2022/02/12 03:01:42;;;;;;;5.60;2.17;;;;;;;-3.10;100.00;102549.03;5075143;28;20449;-74
2022/02/12 03:04:09;;;;;;;5.10;2.60;;;;;;;-3.16;100.00;102559.75;5084390;28;20543;-74
2022/02/12 03:06:35;;;;;;;5.20;2.23;;;;;;;-3.10;100.00;102559.22;5083932;28;21151;-74
2022/02/12 03:09:01;;;;;;;4.17;2.30;;;;;;;-3.08;100.00;102557.66;5082263;28;20539;-74
2022/02/12 03:11:28;;;;;;;7.83;2.80;;;;;;;-3.22;100.00;102556.81;5084092;28;20542;-74
2022/02/12 03:13:56;;;;;;;3.77;2.27;;;;;;;-3.38;100.00;102565.19;5082664;28;20459;-74
2022/02/12 03:16:23;;;;;;;8.57;2.87;;;;;;;-3.38;100.00;102554.97;5085798;28;20566;-74
2022/02/12 03:18:50;;;;;;;7.63;2.47;;;;;;;-3.22;100.00;102553.38;5079502;28;20481;-73
2022/02/12 03:21:16;;;;;;;7.90;2.23;;;;;;;-3.12;100.00;102568.47;5081100;28;20482;-73
2022/02/12 03:23:43;;;;;;;9.90;2.33;;;;;;;-3.13;100.00;102565.03;5073249;28;20990;-74
2022/02/12 03:26:09;;;;;;;8.47;2.63;;;;;;;-3.42;100.00;102568.34;5075522;28;20474;-74
2022/02/12 03:28:36;;;;;;;6.17;2.13;;;;;;;-3.39;100.00;102566.00;5078551;28;20543;-73
2022/02/12 03:31:04;;;;;;;5.83;2.60;;;;;;;-3.42;100.00;102570.91;5081132;28;20955;-74
2022/02/12 03:33:31;;;;;;;9.17;2.17;;;;;;;-3.22;100.00;102567.00;5079243;28;20456;-73
2022/02/12 03:35:57;;;;;;;12.43;2.50;;;;;;;-3.18;100.00;102568.97;5081741;28;20995;-73
2022/02/12 03:38:27;;;;;;;10.87;2.80;;;;;;;-3.19;100.00;102557.00;5077608;28;20488;-74
2022/02/12 03:40:57;;;;;;;8.27;2.60;;;;;;;-3.11;100.00;102560.03;5078092;28;21005;-74
2022/02/12 03:43:25;;;;;;;4.97;2.20;;;;;;;-3.26;100.00;102562.50;5077523;28;20453;-73
2022/02/12 03:45:53;;;;;;;9.33;2.70;;;;;;;-3.22;100.00;102563.59;5080151;28;20456;-74
2022/02/12 03:48:21;;;;;;;7.47;2.53;;;;;;;-3.38;100.00;102566.88;5079689;28;20441;-74
2022/02/12 03:50:47;;;;;;;5.03;2.50;;;;;;;-3.38;100.00;102567.75;5080883;28;20475;-74
2022/02/12 03:53:14;;;;;;;6.50;2.37;;;;;;;-3.44;100.00;102565.69;5083520;28;20460;-74
2022/02/12 03:55:41;;;;;;;6.67;2.17;;;;;;;-3.40;100.00;102558.25;5082878;28;20825;-74
2022/02/12 03:58:10;;;;;;;12.70;2.73;;;;;;;-3.31;100.00;102554.56;5078926;28;20472;-74
2022/02/12 04:00:36;;;;;;;6.50;2.53;;;;;;;-3.30;100.00;102556.34;5081511;28;21103;-74
2022/02/12 04:03:03;;;;;;;5.93;2.10;;;;;;;-3.36;100.00;102558.53;5087637;28;20458;-74
2022/02/12 04:05:32;;;;;;;4.23;2.57;;;;;;;-3.40;100.00;102561.66;5077614;28;20817;-74
2022/02/12 04:07:59;;;;;;;4.33;2.53;;;;;;;-3.37;100.00;102556.75;5091536;28;20447;-74
2022/02/12 04:10:26;;;;;;;10.00;2.43;;;;;;;-3.40;100.00;102551.47;5085705;28;21084;-74
2022/02/12 04:12:56;;;;;;;5.37;2.27;;;;;;;-3.30;100.00;102553.78;5078778;28;20448;-74
2022/02/12 04:15:25;;;;;;;6.23;2.17;;;;;;;-3.17;100.00;102555.41;5083723;28;20453;-73
2022/02/12 04:17:51;;;;;;;6.87;2.47;;;;;;;-3.28;100.00;102557.31;5080061;28;20574;-73
2022/02/12 04:20:19;;;;;;;2.87;1.97;;;;;;;-3.30;100.00;102561.44;5078596;28;21075;-73
2022/02/12 04:22:47;;;;;;;4.50;2.43;;;;;;;-3.39;100.00;102559.97;5080947;28;21059;-73
2022/02/12 04:25:16;;;;;;;11.53;2.43;;;;;;;-3.31;100.00;102558.81;5079091;28;21103;-73
2022/02/12 04:27:43;;;;;;;8.63;3.13;;;;;;;-3.38;100.00;102562.63;5091295;28;20448;-73
2022/02/12 04:30:11;;;;;;;7.90;3.20;;;;;;;-3.37;100.00;102556.75;5075550;28;21138;-73
2022/02/12 04:32:38;;;;;;;9.53;3.27;;;;;;;-3.33;100.00;102560.38;5077641;28;21076;-73
2022/02/12 04:35:07;;;;;;;6.43;2.93;;;;;;;-3.46;100.00;102559.63;5085289;28;20556;-74
2022/02/12 04:37:34;;;;;;;7.20;2.77;;;;;;;-3.31;100.00;102554.56;5086089;28;21130;-73
2022/02/12 04:40:02;;;;;;;4.17;2.87;;;;;;;-3.30;100.00;102558.03;5080197;28;20984;-74
2022/02/12 04:42:29;;;;;;;4.07;2.40;;;;;;;-3.37;100.00;102566.09;5086806;28;20459;-74
2022/02/12 04:44:56;;;;;;;12.90;4.30;;;;;;;-3.39;100.00;102565.09;5085043;28;20464;-74
2022/02/12 04:47:23;;;;;;;23.33;9.80;;;;;;;-3.39;100.00;102570.19;5087668;28;20460;-74
2022/02/12 04:49:50;;;;;;;22.40;9.17;;;;;;;-3.40;100.00;102566.75;5084555;28;20480;-73
2022/02/12 04:52:19;;;;;;;21.63;9.10;;;;;;;-3.38;100.00;102574.53;5082964;28;20456;-74
2022/02/12 04:54:45;;;;;;;24.53;8.57;;;;;;;-3.45;100.00;102566.50;5082513;28;20880;-73
2022/02/12 04:57:14;;;;;;;24.23;10.07;;;;;;;-3.36;100.00;102566.19;5076726;28;20456;-73
2022/02/12 04:59:40;;;;;;;23.03;10.27;;;;;;;-3.48;100.00;102565.44;5081678;28;20475;-73
2022/02/12 05:02:07;;;;;;;24.47;9.00;;;;;;;-3.44;100.00;102562.28;5077819;28;20456;-73
2022/02/12 05:04:33;;;;;;;21.13;7.93;;;;;;;-3.45;100.00;102563.94;5087207;28;20455;-73
2022/02/12 05:07:00;;;;;;;26.43;10.63;;;;;;;-3.54;100.00;102563.34;5084107;28;20462;-73
2022/02/12 05:09:27;;;;;;;23.30;10.27;;;;;;;-3.62;100.00;102557.78;5085956;28;20465;-74
2022/02/12 05:11:54;;;;;;;24.13;8.90;;;;;;;-3.46;100.00;102556.19;5083583;27;20497;-74
2022/02/12 05:14:22;;;;;;;24.40;10.23;;;;;;;-3.54;100.00;102553.16;5082764;28;20448;-73
2022/02/12 05:16:48;;;;;;;24.17;9.87;;;;;;;-3.50;100.00;102544.94;5080542;28;20502;-74
2022/02/12 05:19:15;;;;;;;25.50;10.00;;;;;;;-3.38;100.00;102552.44;5086358;28;20491;-73
2022/02/12 05:21:42;;;;;;;18.43;9.43;;;;;;;-3.38;100.00;102549.88;5078577;28;20513;-73
2022/02/12 05:24:09;;;;;;;21.73;8.10;;;;;;;-3.42;100.00;102548.81;5084527;28;20493;-73
2022/02/12 05:26:36;;;;;;;23.53;7.13;;;;;;;-3.37;100.00;102549.09;5079324;28;20457;-73
2022/02/12 05:29:03;;;;;;;20.47;7.97;;;;;;;-3.52;100.00;102554.13;5075020;28;20995;-73
2022/02/12 05:31:32;;;;;;;14.90;7.27;;;;;;;-3.57;100.00;102541.88;5078878;28;20453;-72
2022/02/12 05:33:58;;;;;;;22.50;8.10;;;;;;;-3.68;100.00;102549.75;5083385;28;20484;-73
2022/02/12 05:36:25;;;;;;;15.37;7.17;;;;;;;-3.79;100.00;102548.19;5085499;28;21032;-74
2022/02/12 05:38:51;;;;;;;14.27;6.10;;;;;;;-3.60;100.00;102549.38;5085033;28;20469;-73
2022/02/12 05:41:18;;;;;;;13.27;5.97;;;;;;;-3.56;100.00;102544.53;5081691;28;20476;-73
2022/02/12 05:43:45;;;;;;;13.23;6.30;;;;;;;-3.64;100.00;102550.81;5087141;28;20464;-73
2022/02/12 05:46:12;;;;;;;11.73;5.20;;;;;;;-3.62;100.00;102539.94;5083212;28;20455;-73
2022/02/12 05:48:40;;;;;;;335.87;122.73;;;;;;;-3.54;100.00;102549.72;5075026;28;20456;-73
2022/02/12 05:51:07;;;;;;;120.17;44.83;;;;;;;-3.69;100.00;102548.00;5086462;28;20460;-73
2022/02/12 05:53:33;;;;;;;96.00;38.60;;;;;;;-3.47;100.00;102550.19;5084348;28;20447;-73
2022/02/12 05:56:00;;;;;;;72.00;30.97;;;;;;;-3.57;100.00;102544.44;5081084;28;20464;-73
2022/02/12 05:58:26;;;;;;;69.83;29.53;;;;;;;-3.55;100.00;102545.41;5071624;28;20980;-73
2022/02/12 06:00:53;;;;;;;58.40;26.63;;;;;;;-3.60;100.00;102550.25;5079187;28;20472;-73
2022/02/12 06:03:19;;;;;;;28.90;12.53;;;;;;;-3.81;100.00;102554.88;5086379;28;20536;-74
2022/02/12 06:05:47;;;;;;;19.57;8.17;;;;;;;-3.75;100.00;102551.81;5085951;28;20824;-74
2022/02/12 06:08:13;;;;;;;17.77;7.07;;;;;;;-3.70;100.00;102556.41;5080268;28;20451;-74
2022/02/12 06:10:40;;;;;;;13.10;5.90;;;;;;;-3.78;100.00;102564.38;5083540;28;20470;-74
2022/02/12 06:13:06;;;;;;;14.70;5.33;;;;;;;-3.79;100.00;102562.63;5084042;28;20540;-74
2022/02/12 06:15:35;;;;;;;14.10;6.83;;;;;;;-3.68;100.00;102552.28;5081455;28;20459;-74
2022/02/12 06:18:03;;;;;;;18.50;6.97;;;;;;;-3.70;100.00;102564.06;5080664;28;20547;-73
2022/02/12 06:20:29;;;;;;;18.37;7.10;;;;;;;-3.68;100.00;102559.94;5085603;28;20551;-73
2022/02/12 06:22:57;;;;;;;10.80;6.10;;;;;;;-3.63;100.00;102568.75;5079407;28;20460;-73
2022/02/12 06:25:24;;;;;;;15.83;6.33;;;;;;;-3.66;100.00;102566.03;5084234;28;20462;-73
2022/02/12 06:27:51;;;;;;;15.53;6.53;;;;;;;-3.68;100.00;102575.25;5075321;28;20467;-73
2022/02/12 06:30:17;;;;;;;11.30;6.23;;;;;;;-3.79;100.00;102575.38;5082572;28;20477;-73
2022/02/12 06:32:43;;;;;;;15.27;6.60;;;;;;;-3.91;100.00;102578.00;5082477;28;20456;-73
2022/02/12 06:35:13;;;;;;;14.77;6.50;;;;;;;-3.77;100.00;102576.34;5085738;28;20793;-73
2022/02/12 06:37:39;;;;;;;13.20;6.53;;;;;;;-3.73;100.00;102589.38;5083549;28;20506;-73
2022/02/12 06:40:08;;;;;;;15.37;6.30;;;;;;;-3.79;100.00;102585.56;5083059;28;20486;-73
2022/02/12 06:42:34;;;;;;;15.63;5.83;;;;;;;-3.80;100.00;102587.22;5079119;28;20467;-73
2022/02/12 06:45:01;;;;;;;12.60;6.30;;;;;;;-3.80;100.00;102597.41;5075480;28;20464;-73
2022/02/12 06:47:27;;;;;;;20.23;5.83;;;;;;;-4.01;100.00;102596.91;5084489;28;20506;-74
2022/02/12 06:49:54;;;;;;;11.17;5.43;;;;;;;-3.78;100.00;102594.94;5081090;28;20476;-73
2022/02/12 06:52:20;;;;;;;11.20;5.80;;;;;;;-3.88;100.00;102585.84;5086483;28;20456;-74
2022/02/12 06:54:46;;;;;;;16.10;6.00;;;;;;;-3.90;100.00;102598.50;5083769;28;20460;-73
2022/02/12 06:57:14;;;;;;;10.83;4.70;;;;;;;-3.78;100.00;102594.94;5080321;28;20463;-73
2022/02/12 06:59:42;;;;;;;12.87;5.73;;;;;;;-3.84;100.00;102590.34;5072626;28;20510;-72
2022/02/12 07:02:08;;;;;;;15.10;5.20;;;;;;;-3.81;100.00;102583.78;5084774;28;20517;-73
2022/02/12 07:04:35;;;;;;;11.30;4.93;;;;;;;-3.62;100.00;102588.38;5077243;28;20548;-74
2022/02/12 07:07:01;;;;;;;9.57;4.87;;;;;;;-3.54;100.00;102591.41;5078490;28;20466;-74
2022/02/12 07:09:28;;;;;;;12.30;5.20;;;;;;;-3.58;100.00;102593.69;5079596;28;20478;-74
2022/02/12 07:11:54;;;;;;;11.87;5.20;;;;;;;-3.63;100.00;102589.16;5083700;28;20475;-73
2022/02/12 07:14:22;;;;;;;14.10;4.97;;;;;;;-3.58;100.00;102598.78;5078293;28;20949;-74
2022/02/12 07:16:48;;;;;;;15.33;5.47;;;;;;;-3.69;100.00;102599.00;5077048;28;20548;-73
2022/02/12 07:19:14;;;;;;;14.40;4.67;;;;;;;-3.66;100.00;102589.00;5081136;28;20562;-73
2022/02/12 07:21:41;;;;;;;11.27;5.07;;;;;;;-3.57;100.00;102587.78;5078418;28;20461;-73
2022/02/12 07:24:08;;;;;;;11.67;4.60;;;;;;;-3.43;100.00;102594.63;5081262;28;20460;-73
2022/02/12 07:26:37;;;;;;;10.33;4.70;;;;;;;-3.43;100.00;102599.72;5076247;28;20517;-73
2022/02/12 07:29:07;;;;;;;13.13;5.97;;;;;;;-3.35;100.00;102603.66;5081277;28;20558;-73
2022/02/12 07:31:35;;;;;;;13.43;5.33;;;;;;;-3.44;100.00;102598.84;5074337;28;20460;-74
2022/02/12 07:34:01;;;;;;;13.33;5.80;;;;;;;-3.41;100.00;102598.19;5081578;28;20897;-73
2022/02/12 07:36:27;;;;;;;10.47;5.60;;;;;;;-3.48;100.00;102604.56;5087346;28;20455;-73
2022/02/12 07:38:55;;;;;;;13.13;5.97;;;;;;;-3.44;100.00;102619.25;5083445;28;21090;-73
2022/02/12 07:41:22;;;;;;;12.23;6.70;;;;;;;-3.42;100.00;102604.06;5085785;28;20451;-73
2022/02/12 07:43:48;;;;;;;12.10;6.27;;;;;;;-3.42;100.00;102607.47;5082908;28;20459;-73
2022/02/12 07:46:15;;;;;;;13.70;7.13;;;;;;;-3.53;100.00;102617.81;5086598;28;20448;-73
2022/02/12 07:48:43;;;;;;;15.57;6.37;;;;;;;-3.51;100.00;102614.56;5087034;28;20463;-74
2022/02/12 07:51:10;;;;;;;15.43;6.80;;;;;;;-3.45;100.00;102608.97;5080781;28;20459;-74
2022/02/12 07:53:36;;;;;;;14.03;6.77;;;;;;;-3.35;100.00;102610.44;5080675;28;20548;-73
2022/02/12 07:56:03;;;;;;;16.37;7.53;;;;;;;-3.43;100.00;102613.38;5086253;28;20456;-74
2022/02/12 07:58:30;;;;;;;16.20;7.90;;;;;;;-3.35;100.00;102608.75;5084945;28;20467;-74
2022/02/12 08:00:56;;;;;;;17.57;7.87;;;;;;;-3.28;100.00;102625.34;5075087;28;20529;-74
2022/02/12 08:03:23;;;;;;;25.63;9.50;;;;;;;-3.25;100.00;102616.19;5088465;28;20448;-74
2022/02/12 08:05:51;;;;;;;18.93;9.80;;;;;;;-3.22;100.00;102609.50;5084745;28;20618;-74
2022/02/12 08:08:17;;;;;;;23.00;10.10;;;;;;;-3.20;100.00;102613.94;5077710;28;20476;-74
2022/02/12 08:13:27;;;;;;;20.00;9.53;;;;;;;-3.05;100.00;102607.22;5075620;28;20467;-73
2022/02/12 08:15:54;;;;;;;16.97;8.40;;;;;;;-2.98;100.00;102611.03;5086012;28;20577;-73
2022/02/12 08:18:20;;;;;;;30.63;10.03;;;;;;;-2.92;100.00;102610.50;5077148;28;20821;-73
2022/02/12 08:20:47;;;;;;;25.17;10.63;;;;;;;-2.87;100.00;102607.47;5074116;28;20489;-73
2022/02/12 08:23:18;;;;;;;22.53;9.90;;;;;;;-2.78;100.00;102614.81;5087027;28;20458;-74
2022/02/12 08:25:45;;;;;;;25.57;10.67;;;;;;;-2.71;100.00;102616.94;5079881;28;20464;-74
2022/02/12 08:28:11;;;;;;;39.43;14.17;;;;;;;-2.63;100.00;102616.50;5083962;28;20450;-74
2022/02/12 08:30:37;;;;;;;37.63;15.63;;;;;;;-2.56;100.00;102618.63;5079712;28;21100;-74
2022/02/12 08:33:04;;;;;;;29.90;12.03;;;;;;;-2.51;100.00;102623.22;5083469;28;20456;-74
2022/02/12 08:35:30;;;;;;;32.70;12.07;;;;;;;-2.44;100.00;102627.00;5077662;28;20461;-73
2022/02/12 08:37:58;;;;;;;28.63;15.27;;;;;;;-2.39;100.00;102627.25;5083756;28;20446;-73
2022/02/12 08:40:25;;;;;;;29.37;14.03;;;;;;;-2.33;100.00;102617.41;5082278;28;20219;-73
2022/02/12 08:42:53;;;;;;;26.97;11.73;;;;;;;-2.30;100.00;102617.63;5083857;28;20194;-73
2022/02/12 08:45:20;;;;;;;24.83;10.73;;;;;;;-2.23;100.00;102622.28;5077263;28;20201;-73
2022/02/12 08:47:46;;;;;;;25.40;10.67;;;;;;;-2.19;100.00;102618.22;5076431;28;20213;-73
2022/02/12 08:50:15;;;;;;;32.80;12.63;;;;;;;-2.12;100.00;102616.09;5082084;28;20571;-74
2022/02/12 08:52:41;;;;;;;25.10;11.20;;;;;;;-2.05;100.00;102614.78;5086002;28;20197;-73
2022/02/12 08:55:09;;;;;;;24.57;10.67;;;;;;;-1.98;100.00;102624.56;5085203;28;20210;-74
2022/02/12 08:57:37;;;;;;;34.20;14.17;;;;;;;-1.94;100.00;102615.41;5082467;28;20225;-74
2022/02/12 09:00:05;;;;;;;49.83;15.70;;;;;;;-1.89;100.00;102616.53;5083445;28;20228;-73
2022/02/12 09:02:32;;;;;;;37.67;14.93;;;;;;;-1.83;100.00;102618.56;5079777;28;20240;-74
2022/02/12 09:04:58;;;;;;;46.13;17.83;;;;;;;-1.76;100.00;102621.56;5086438;28;20206;-74
2022/02/12 09:07:24;;;;;;;40.73;16.07;;;;;;;-1.69;100.00;102609.09;5083976;28;20574;-74
2022/02/12 09:09:52;;;;;;;38.30;14.13;;;;;;;-1.63;100.00;102615.44;5079503;28;20323;-74
2022/02/12 09:12:18;;;;;;;31.40;12.53;;;;;;;-1.59;100.00;102612.25;5084608;28;20273;-74
2022/02/12 09:14:47;;;;;;;40.17;14.43;;;;;;;-1.50;100.00;102617.00;5079793;28;20198;-74
2022/02/12 09:17:13;;;;;;;41.60;14.90;;;;;;;-1.45;100.00;102610.47;5080944;28;20630;-73
2022/02/12 09:19:40;;;;;;;29.20;11.47;;;;;;;-1.43;100.00;102613.09;5081331;28;20225;-75
2022/02/12 09:22:06;;;;;;;31.37;11.07;;;;;;;-1.36;100.00;102602.41;5081474;28;20201;-73
2022/02/12 09:24:32;;;;;;;28.93;11.03;;;;;;;-1.33;100.00;102607.69;5082684;28;20202;-74
2022/02/12 09:26:59;;;;;;;33.27;13.00;;;;;;;-1.27;100.00;102605.44;5082729;28;20555;-73
2022/02/12 09:29:25;;;;;;;28.57;11.20;;;;;;;-1.20;100.00;102604.97;5079244;28;20620;-73
2022/02/12 09:31:53;;;;;;;30.60;11.10;;;;;;;-1.12;100.00;102604.53;5079856;28;20209;-73
2022/02/12 09:34:20;;;;;;;28.30;11.50;;;;;;;-1.13;100.00;102598.50;5082121;28;20201;-74
2022/02/12 09:36:46;;;;;;;33.43;11.87;;;;;;;-1.08;100.00;102601.34;5080770;28;20230;-74
2022/02/12 09:39:15;;;;;;;37.10;12.77;;;;;;;-1.02;100.00;102606.75;5079562;28;20578;-75
2022/02/12 09:41:44;;;;;;;33.03;12.13;;;;;;;-1.03;100.00;102603.31;5071012;28;20286;-74
2022/02/12 09:44:10;;;;;;;33.03;11.80;;;;;;;-0.92;100.00;102603.03;5083991;28;20248;-73
2022/02/12 09:46:49;;;;;;;35.67;12.30;;;;;;;-0.83;100.00;102588.13;5077142;28;20217;-73
2022/02/12 09:49:18;;;;;;;32.37;11.13;;;;;;;-0.77;100.00;102607.25;5076514;28;20214;-74
2022/02/12 09:51:45;;;;;;;39.57;11.67;;;;;;;-0.66;100.00;102609.50;5074283;28;20205;-74
2022/02/12 09:54:12;;;;;;;30.47;12.10;;;;;;;-0.59;100.00;102612.44;5075532;28;20191;-74
2022/02/12 09:56:39;;;;;;;41.63;11.20;;;;;;;-0.47;100.00;102608.78;5077876;28;21579;-74
2022/02/12 09:59:05;;;;;;;28.13;10.50;;;;;;;-0.47;100.00;102603.63;5082390;28;20588;-73
2022/02/12 10:01:32;;;;;;;29.53;10.83;;;;;;;-0.43;100.00;102602.97;5082557;28;20206;-73
2022/02/12 10:03:58;;;;;;;40.13;12.13;;;;;;;-0.44;100.00;102603.78;5081604;28;20206;-74
2022/02/12 10:06:51;;;;;;;49.97;12.53;;;;;;;-0.38;100.00;102609.22;5078815;28;20208;-73
2022/02/12 10:09:17;;;;;;;34.97;12.03;;;;;;;-0.31;100.00;102598.47;5068700;28;20221;-73
2022/02/12 10:11:47;;;;;;;35.47;11.33;;;;;;;-0.29;100.00;102598.56;5075292;28;20193;-73
2022/02/12 10:14:15;;;;;;;33.93;11.07;;;;;;;-0.21;100.00;102602.38;5081299;28;20725;-73
2022/02/12 10:17:04;;;;;;;44.60;11.23;;;;;;;-0.13;100.00;102606.19;5081675;28;20210;-74
2022/02/12 10:19:33;;;;;;;43.07;10.37;;;;;;;-0.08;100.00;102606.44;5073642;28;20263;-74
2022/02/12 10:22:13;;;;;;;33.93;11.33;;;;;;;-0.03;100.00;102604.97;5074055;28;20213;-73
2022/02/12 10:25:00;;;;;;;40.70;12.23;;;;;;;0.09;100.00;102597.88;5079198;28;20198;-74
2022/02/12 10:27:28;;;;;;;46.93;14.90;;;;;;;0.17;100.00;102593.97;5076687;28;20201;-74
2022/02/12 10:29:58;;;;;;;38.47;13.23;;;;;;;0.25;100.00;102598.63;5084161;28;20221;-75
2022/02/12 10:32:26;;;;;;;47.20;14.53;;;;;;;0.37;100.00;102601.78;5077134;28;20659;-74
2022/02/12 10:34:56;;;;;;;36.90;12.50;;;;;;;0.47;100.00;102600.50;5078950;28;20216;-74
2022/02/12 10:37:25;;;;;;;44.00;13.43;;;;;;;0.58;100.00;102591.59;5075480;28;20563;-73
2022/02/12 10:39:54;;;;;;;43.63;13.87;;;;;;;0.59;100.00;102589.94;5086963;28;20295;-74
2022/02/12 10:42:21;;;;;;;42.53;13.00;;;;;;;0.64;100.00;102588.47;5081255;28;20209;-74
2022/02/12 10:44:49;;;;;;;40.20;15.17;;;;;;;0.76;100.00;102583.88;5080198;28;20218;-74
2022/02/12 10:47:16;;;;;;;50.97;18.70;;;;;;;0.86;100.00;102578.34;5080517;28;20202;-75
2022/02/12 10:49:43;;;;;;;52.80;16.17;;;;;;;0.93;100.00;102566.63;5077227;28;20214;-73
2022/02/12 10:52:10;;;;;;;52.97;15.07;;;;;;;1.02;100.00;102567.06;5078950;28;20205;-73
2022/02/12 10:54:43;;;;;;;40.73;15.20;;;;;;;1.17;100.00;102555.69;5073826;28;20205;-73
2022/02/12 10:57:09;;;;;;;50.87;18.50;;;;;;;1.12;100.00;102550.34;5077036;28;20591;-74
2022/02/12 10:59:41;;;;;;;43.67;16.47;;;;;;;1.23;100.00;102541.44;5073702;28;20311;-74
2022/02/12 11:02:10;;;;;;;49.23;16.03;;;;;;;1.29;100.00;102551.97;5073005;28;21678;-74
2022/02/12 11:04:40;;;;;;;53.63;17.53;;;;;;;1.38;100.00;102548.03;5074522;28;20213;-73
2022/02/12 11:07:07;;;;;;;44.30;17.80;;;;;;;1.46;100.00;102550.13;5068351;28;20224;-74
2022/02/12 11:09:34;;;;;;;65.37;20.47;;;;;;;1.59;100.00;102545.50;5078733;28;20593;-74
2022/02/12 11:12:05;;;;;;;55.03;18.43;;;;;;;1.50;100.00;102553.69;5074186;28;20210;-74
2022/02/12 11:14:33;;;;;;;53.17;19.53;;;;;;;1.27;100.00;102558.72;5078934;28;20209;-74
2022/02/12 11:17:03;;;;;;;43.33;18.43;;;;;;;1.21;100.00;102558.44;5080908;28;20208;-74
2022/02/12 11:19:30;;;;;;;45.27;16.83;;;;;;;1.18;100.00;102553.19;5072666;28;20691;-73